Time;durP1;ratioP1;P1;durP2;ratioP2;P2;SDS_P1;SDS_P2;PMS_P1;PMS_P2;Temp;Humidity;BMP_temperature;BMP_pressure;BME280_temperature;BME280_humidity;BME280_pressure;Samples;Min_cycle;Max_cycle;Signal;HPM_P1;HPM_P2
2022/11/03 04:32:51;;;;;;;;;;;;;;;9.87;100.00;99586.66;4936213;29;19942;-85
2022/11/03 04:35:20;;;;;;;;;;;;;;;9.10;100.00;99587.22;4936477;29;20302;-84
2022/11/03 04:37:48;;;;;;;;;;;;;;;7.55;100.00;99593.75;4935016;29;20365;-88
2022/11/03 04:40:15;;;;;;;;;;;;;;;6.77;100.00;99590.03;4936243;29;19941;-84
2022/11/03 04:42:40;;;;;;;;;;;;;;;6.48;100.00;99588.28;4933677;29;19918;-86
2022/11/03 04:45:12;;;;;;;;;;;;;;;6.25;100.00;99586.31;4934348;29;19926;-84
2022/11/03 04:47:38;;;;;;;;;;;;;;;6.08;100.00;99584.13;4934617;29;19918;-84
2022/11/03 04:50:05;;;;;;;;;;;;;;;5.97;100.00;99576.56;4936219;29;19918;-90
2022/11/03 04:52:31;;;;;;;;;;;;;;;5.76;100.00;99570.06;4936338;29;19919;-84
2022/11/03 04:54:56;;;;;;;;;;;;;;;5.95;100.00;99563.41;4934676;29;20378;-86
2022/11/03 04:57:26;;;;;;;;;;;;;;;5.79;100.00;99560.34;4935896;29;19918;-91
2022/11/03 04:59:52;;;;;;;;;;;;;;;5.49;100.00;99548.88;4934617;29;19923;-84
2022/11/03 05:02:18;;;;;;;;;;;;;;;5.50;100.00;99545.31;4950788;29;20030;-85
2022/11/03 05:04:43;;;;;;;;;;;;;;;5.42;100.00;99550.78;4935963;29;19923;-84
2022/11/03 05:07:20;;;;;;;;;;;;;;;5.43;100.00;99543.78;4935860;29;19974;-84
2022/11/03 05:09:46;;;;;;;;;;;;;;;5.13;100.00;99553.28;4934468;29;19919;-84
2022/11/03 05:12:11;;;;;;;;;;;;;;;5.24;100.00;99553.88;4934659;29;19930;-84
2022/11/03 05:14:36;;;;;;;;;;;;;;;5.21;100.00;99551.31;4934636;29;19918;-84
2022/11/03 05:17:01;;;;;;;;;;;;;;;5.72;100.00;99547.41;4934611;29;19918;-85
2022/11/03 05:19:35;;;;;;;;;;;;;;;5.95;100.00;99544.13;4935756;29;19925;-84
2022/11/03 05:22:01;;;;;;;;;;;;;;;6.04;100.00;99545.69;4935805;29;20013;-84
2022/11/03 05:24:28;;;;;;;;;;;;;;;6.09;100.00;99533.25;4935671;29;20009;-83
2022/11/03 05:26:55;;;;;;;;;;;;;;;6.17;100.00;99531.28;4934329;29;19919;-86
2022/11/03 05:29:25;;;;;;;;;;;;;;;6.24;100.00;99522.31;4949190;29;19918;-90
2022/11/03 08:41:12;;;;;;;;;;;;;;;5.36;100.00;99337.25;4896970;29;19983;-88
2022/11/03 08:43:38;;;;;;;;;;;;;;;5.37;100.00;99328.47;4898916;29;19928;-88
2022/11/03 08:46:03;;;;;;;;;;;;;;;5.40;100.00;99320.50;4897093;29;19923;-86
2022/11/03 08:48:28;;;;;;;;;;;;;;;5.35;100.00;99310.13;4894132;29;19999;-87
2022/11/03 08:50:54;;;;;;;;;;;;;;;5.40;100.00;99310.00;4915555;29;19974;-88
2022/11/03 08:53:21;;;;;;;;;;;;;;;5.39;100.00;99303.88;4892624;29;20324;-88
2022/11/03 08:55:46;;;;;;;;;;;;;;;5.40;100.00;99291.59;4897637;29;20365;-88
2022/11/03 08:58:11;;;;;;;;;;;;;;;5.39;100.00;99280.25;4894265;29;19922;-88
2022/11/03 09:00:37;;;;;;;;;;;;;;;5.38;100.00;99277.66;4906250;29;19973;-87
2022/11/03 09:03:02;;;;;;;;;;;;;;;5.38;100.00;99275.88;4894159;29;20360;-88
2022/11/03 09:05:28;;;;;;;;;;;;;;;5.37;100.00;99283.81;4877167;29;19915;-88
2022/11/03 09:07:53;;;;;;;;;;;;;;;5.37;100.00;99281.19;4893406;29;19970;-86
2022/11/03 09:10:19;;;;;;;;;;;;;;;5.35;100.00;99272.50;4897941;29;19927;-91
2022/11/03 09:12:44;;;;;;;;;;;;;;;5.35;100.00;99275.97;4897193;29;19989;-88
2022/11/03 09:15:10;;;;;;;;;;;;;;;5.37;100.00;99260.16;4898017;29;20006;-88
2022/11/03 09:17:35;;;;;;;;;;;;;;;5.42;100.00;99255.63;4897917;29;19919;-87
2022/11/03 09:20:01;;;;;;;;;;;;;;;5.36;100.00;99237.41;4898003;29;19968;-87
2022/11/03 09:22:26;;;;;;;;;;;;;;;5.41;100.00;99232.91;4898041;29;19942;-88
2022/11/03 09:25:17;;;;;;;;;;;;;;;5.41;100.00;99235.53;4896666;29;19924;-93
2022/11/03 09:27:43;;;;;;;;;;;;;;;5.40;100.00;99226.75;4890287;29;19930;-87
2022/11/03 09:30:08;;;;;;;;;;;;;;;5.39;100.00;99227.69;4897943;29;20002;-87
2022/11/03 09:32:42;;;;;;;;;;;;;;;5.38;100.00;99217.22;4897858;29;19967;-90
2022/11/03 09:35:08;;;;;;;;;;;;;;;5.42;100.00;99222.31;4896630;29;19927;-87
2022/11/03 09:37:34;;;;;;;;;;;;;;;5.41;100.00;99204.00;4899612;29;19928;-88
2022/11/03 09:39:59;;;;;;;;;;;;;;;5.42;100.00;99197.81;4907785;29;19930;-87
2022/11/03 09:42:26;;;;;;;;;;;;;;;5.40;100.00;99189.13;4920289;29;19942;-88
2022/11/03 09:44:55;;;;;;;;;;;;;;;5.41;100.00;99177.72;4918415;29;21277;-88
2022/11/03 09:50:37;;;;;;;;;;;;;;;5.38;100.00;99162.91;4898300;29;20334;-87
2022/11/03 09:53:03;;;;;;;;;;;;;;;5.39;100.00;99154.13;4917597;29;20013;-87
2022/11/03 09:55:28;;;;;;;;;;;;;;;5.36;100.00;99154.22;4920002;29;20010;-87
2022/11/03 09:57:58;;;;;;;;;;;;;;;5.35;100.00;99151.63;4920038;29;19919;-88
2022/11/03 10:00:25;;;;;;;;;;;;;;;5.38;100.00;99138.41;4918581;29;19927;-88
2022/11/03 10:02:51;;;;;;;;;;;;;;;5.37;100.00;99140.16;4920021;29;19935;-88
2022/11/03 10:05:36;;;;;;;;;;;;;;;5.39;100.00;99140.09;4918730;29;19919;-87
2022/11/03 10:08:04;;;;;;;;;;;;;;;5.39;100.00;99137.47;4916676;29;19967;-88
2022/11/03 10:10:29;;;;;;;;;;;;;;;5.35;100.00;99136.72;4918508;29;19919;-87
2022/11/03 10:12:55;;;;;;;;;;;;;;;5.37;100.00;99137.53;4919741;29;19926;-87
2022/11/03 10:15:21;;;;;;;;;;;;;;;5.42;100.00;99127.72;4918446;29;19920;-86
2022/11/03 10:17:49;;;;;;;;;;;;;;;5.39;100.00;99129.59;4919881;29;19919;-87
2022/11/03 10:20:16;;;;;;;;;;;;;;;5.40;100.00;99123.44;4919589;29;19947;-87
2022/11/03 10:22:42;;;;;;;;;;;;;;;5.41;100.00;99126.03;4919657;29;19930;-88
2022/11/03 10:25:26;;;;;;;;;;;;;;;5.38;100.00;99136.63;4918392;29;19919;-88
2022/11/03 10:27:51;;;;;;;;;;;;;;;5.40;100.00;99131.31;4919553;29;19919;-87
2022/11/03 10:30:17;;;;;;;;;;;;;;;5.40;100.00;99110.31;4918414;29;19919;-86
2022/11/03 10:32:42;;;;;;;;;;;;;;;5.44;100.00;99093.50;4919409;29;19923;-86
2022/11/03 10:35:26;;;;;;;;;;;;;;;5.38;100.00;99094.59;4918214;29;19966;-86
2022/11/03 10:37:51;;;;;;;;;;;;;;;5.43;100.00;99082.16;4919411;29;20289;-87
2022/11/03 10:40:34;;;;;;;;;;;;;;;5.39;100.00;99077.94;4917980;29;20018;-86
2022/11/03 10:42:59;;;;;;;;;;;;;;;5.41;100.00;99075.25;4918219;29;19923;-87
2022/11/03 10:45:24;;;;;;;;;;;;;;;5.41;100.00;99056.84;4919198;29;19975;-87
2022/11/03 10:48:00;;;;;;;;;;;;;;;5.40;100.00;99052.50;4919029;29;19926;-86
2022/11/03 10:50:26;;;;;;;;;;;;;;;5.40;100.00;99049.88;4919082;29;20331;-86
2022/11/03 10:52:52;;;;;;;;;;;;;;;5.39;100.00;99049.03;4917976;29;19919;-87
2022/11/03 10:55:18;;;;;;;;;;;;;;;5.41;100.00;99041.94;4917958;29;19919;-86
2022/11/03 10:57:43;;;;;;;;;;;;;;;6.15;100.00;99038.53;4918986;29;19923;-86
2022/11/03 11:00:14;;;;;;;;;;;;;;;7.60;100.00;99043.38;4919143;29;19927;-90
2022/11/03 11:02:41;;;;;;;;;;;;;;;6.20;100.00;99038.38;4919089;29;19919;-93
2022/11/03 11:05:20;;;;;;;;;;;;;;;5.87;100.00;99023.72;4917829;29;20303;-90
2022/11/03 11:07:45;;;;;;;;;;;;;;;5.80;100.00;99016.97;4917731;29;19923;-92
2022/11/03 11:10:11;;;;;;;;;;;;;;;5.72;100.00;99005.88;4917688;29;19935;-91
2022/11/03 11:12:36;;;;;;;;;;;;;;;5.68;100.00;98991.97;4918779;29;20375;-90
2022/11/03 11:15:06;;;;;;;;;;;;;;;5.70;100.00;98990.16;4917835;29;19926;-90
2022/11/03 11:17:37;;;;;;;;;;;;;;;5.66;100.00;98982.41;4918681;29;20017;-88
2022/11/03 11:20:23;;;;;;;;;;;;;;;5.62;100.00;98982.53;4918964;29;19923;-90
2022/11/03 11:22:51;;;;;;;;;;;;;;;5.66;100.00;98992.94;4917081;29;19919;-88
2022/11/03 11:25:17;;;;;;;;;;;;;;;5.64;100.00;98979.84;4917339;29;20298;-90
2022/11/03 11:27:53;;;;;;;;;;;;;;;5.62;100.00;98986.94;4917131;29;19930;-90
2022/11/03 11:30:18;;;;;;;;;;;;;;;5.65;100.00;98992.09;4917449;29;19923;-90
2022/11/03 11:32:44;;;;;;;;;;;;;;;5.62;100.00;98984.31;4918399;29;19931;-89
2022/11/03 11:35:15;;;;;;;;;;;;;;;5.63;100.00;98967.59;4918519;29;19926;-89
2022/11/03 11:37:40;;;;;;;;;;;;;;;5.58;100.00;98966.91;4917124;29;20375;-89
2022/11/03 11:40:24;;;;;;;;;;;;;;;5.58;100.00;98969.53;4899827;29;19923;-88
2022/11/03 11:42:58;;;;;;;;;;;;;;;5.64;100.00;98964.91;4917529;29;19927;-91
2022/11/03 11:45:42;;;;;;;;;;;;;;;5.57;100.00;98955.56;4918478;29;19919;-89
2022/11/03 11:48:15;;;;;;;;;;;;;;;5.60;100.00;98949.31;4918201;29;20371;-88
2022/11/03 11:50:40;;;;;;;;;;;;;;;5.62;100.00;98929.97;4916753;29;20018;-90
2022/11/03 11:53:06;;;;;;;;;;;;;;;5.57;100.00;98918.75;4916445;29;19957;-88
2022/11/03 11:55:39;;;;;;;;;;;;;;;7.31;100.00;98900.50;4918997;29;20334;-86
2022/11/03 11:58:11;;;;;;;;;;;;;;;6.22;100.00;98894.47;4917924;29;19985;-92
2022/11/03 12:00:36;;;;;;;;;;;;;;;5.95;100.00;98882.31;4928111;23;20271;-85
2022/11/03 12:03:04;;;;;;;;;;;;;;;5.91;100.00;98898.25;4968527;23;19933;-88
2022/11/03 12:05:30;;;;;;;;;;;;;;;5.85;100.00;98896.69;4954800;29;20413;-92
2022/11/03 12:07:55;;;;;;;;;;;;;;;5.86;100.00;98893.16;4954466;29;19923;-88
2022/11/03 12:10:26;;;;;;;;;;;;;;;5.85;100.00;98882.72;4970071;28;20025;-92
2022/11/03 12:12:51;;;;;;;;;;;;;;;5.84;100.00;98866.09;4957867;28;19918;-91
2022/11/03 12:17:48;;;;;;;;;;;;;;;5.80;100.00;98844.28;5001382;23;19926;-87
2022/11/03 12:20:32;;;;;;;;;;;;;;;5.82;100.00;98839.84;4994533;28;20471;-89
2022/11/03 12:23:00;;;;;;;;;;;;;;;5.79;100.00;98825.94;4976584;28;19976;-92
2022/11/03 12:25:34;;;;;;;;;;;;;;;5.82;100.00;98812.69;4976966;28;19921;-92
2022/11/03 12:27:59;;;;;;;;;;;;;;;5.81;100.00;98795.22;4994526;28;19968;-92
2022/11/03 12:30:24;;;;;;;;;;;;;;;5.81;100.00;98803.97;4994341;28;19917;-89
2022/11/03 12:32:50;;;;;;;;;;;;;;;5.80;100.00;98793.50;4994216;28;19931;-88
2022/11/03 12:35:16;;;;;;;;;;;;;;;5.79;100.00;98781.25;4994243;28;20372;-91
2022/11/03 12:37:41;;;;;;;;;;;;;;;5.83;100.00;98783.72;4994145;28;19917;-91
2022/11/03 12:40:09;;;;;;;;;;;;;;;5.83;100.00;98764.47;4993151;28;20017;-90
2022/11/03 12:42:35;;;;;;;;;;;;;;;5.82;100.00;98750.47;4976845;28;19968;-87
2022/11/03 12:45:00;;;;;;;;;;;;;;;5.81;100.00;98746.13;4993759;28;19922;-88
2022/11/03 12:47:25;;;;;;;;;;;;;;;5.83;100.00;98757.41;4976921;28;19933;-90
2022/11/03 12:49:50;;;;;;;;;;;;;;;5.85;100.00;98754.72;4994221;28;20514;-92
2022/11/03 12:52:16;;;;;;;;;;;;;;;5.85;100.00;98752.09;4994235;28;19952;-88
2022/11/03 12:54:41;;;;;;;;;;;;;;;5.82;100.00;98741.72;4992887;28;20447;-92
2022/11/03 12:57:06;;;;;;;;;;;;;;;5.85;100.00;98733.69;4994089;28;19953;-86
2022/11/03 12:59:32;;;;;;;;;;;;;;;5.87;100.00;98739.78;4993997;28;19925;-87
2022/11/03 13:01:57;;;;;;;;;;;;;;;5.85;100.00;98731.06;4976444;28;19917;-88
2022/11/03 13:04:22;;;;;;;;;;;;;;;5.87;100.00;98729.25;4994065;28;19918;-87
2022/11/03 13:06:47;;;;;;;;;;;;;;;5.86;100.00;98745.94;4993753;28;19917;-89
2022/11/03 13:09:13;;;;;;;;;;;;;;;5.87;100.00;98770.44;4992815;28;19918;-90
2022/11/03 13:14:28;;;;;;;;;;;;;;;5.87;100.00;98760.81;4998280;28;19940;-87
2022/11/03 13:16:53;;;;;;;;;;;;;;;5.86;100.00;98761.72;4997713;28;20381;-88
2022/11/03 13:19:18;;;;;;;;;;;;;;;5.90;100.00;98760.66;5005086;23;19925;-87
2022/11/03 13:21:44;;;;;;;;;;;;;;;5.89;100.00;98756.34;4980287;28;19921;-91
2022/11/03 13:24:09;;;;;;;;;;;;;;;5.87;100.00;98739.78;4979101;28;19924;-91
2022/11/03 13:26:38;;;;;;;;;;;;;;;5.90;100.00;98723.84;4997871;28;19931;-89
2022/11/03 13:29:03;;;;;;;;;;;;;;;5.91;100.00;98708.94;4978990;28;19926;-91
2022/11/03 13:31:31;;;;;;;;;;;;;;;5.92;100.00;98716.78;4980658;28;19918;-89
2022/11/03 13:39:28;;;;;;;;;;;;;;;5.87;100.00;98734.50;5186590;23;19926;-89
2022/11/03 13:47:33;;;;;;;;;;;;;;;5.90;100.00;98737.00;4976315;28;19926;-90
2022/11/03 13:50:01;;;;;;;;;;;;;;;5.92;100.00;98732.56;4960330;28;20281;-93
2022/11/03 13:52:27;;;;;;;;;;;;;;;5.93;100.00;98728.13;4999073;23;19926;-91
2022/11/03 13:54:57;;;;;;;;;;;;;;;5.93;100.00;98720.25;5043398;23;19932;-92
2022/11/03 13:57:23;;;;;;;;;;;;;;;5.94;100.00;98722.81;4979762;28;20491;-87
2022/11/03 13:59:48;;;;;;;;;;;;;;;5.95;100.00;98721.91;4997447;28;19949;-87
2022/11/03 14:02:13;;;;;;;;;;;;;;;5.92;100.00;98713.25;4997220;28;20336;-85
2022/11/03 14:04:38;;;;;;;;;;;;;;;5.94;100.00;98712.28;4979765;28;19914;-92
2022/11/03 14:07:04;;;;;;;;;;;;;;;5.97;100.00;98709.56;4979569;28;19929;-90
2022/11/03 14:09:29;;;;;;;;;;;;;;;5.97;100.00;98708.72;4978257;28;19961;-85
2022/11/03 14:14:38;;;;;;;;;;;;;;;5.97;100.00;98699.06;4997317;28;19980;-88
2022/11/03 14:17:04;;;;;;;;;;;;;;;6.00;100.00;98693.66;4996694;28;20404;-85
2022/11/03 14:19:29;;;;;;;;;;;;;;;6.02;100.00;98687.50;4996741;28;19918;-85
2022/11/03 14:21:54;;;;;;;;;;;;;;;6.01;100.00;98678.75;4996573;28;19933;-86
2022/11/03 14:24:20;;;;;;;;;;;;;;;6.05;100.00;98674.19;4994967;28;19972;-89
2022/11/03 14:26:45;;;;;;;;;;;;;;;6.03;100.00;98660.28;4996591;28;19968;-92
2022/11/03 14:29:10;;;;;;;;;;;;;;;6.02;100.00;98645.44;4996552;28;19961;-86
2022/11/03 14:31:35;;;;;;;;;;;;;;;6.04;100.00;98641.78;4996235;28;20273;-86
2022/11/03 14:34:01;;;;;;;;;;;;;;;6.06;100.00;98642.56;4996436;28;19961;-86
2022/11/03 14:36:26;;;;;;;;;;;;;;;6.08;100.00;98627.59;4996562;28;19925;-90
2022/11/03 14:38:51;;;;;;;;;;;;;;;6.07;100.00;98625.03;4995125;28;19925;-89
2022/11/03 14:44:02;;;;;;;;;;;;;;;6.12;100.00;98617.81;4996717;28;20020;-89
2022/11/03 14:46:27;;;;;;;;;;;;;;;6.14;100.00;98602.81;4978897;28;19925;-86
2022/11/03 14:48:53;;;;;;;;;;;;;;;6.18;100.00;98610.50;4978807;28;19922;-86
2022/11/03 14:51:18;;;;;;;;;;;;;;;6.16;100.00;98612.34;4996189;28;19925;-90
2022/11/03 14:53:44;;;;;;;;;;;;;;;6.21;100.00;98606.88;4977572;28;19963;-92
2022/11/03 14:56:09;;;;;;;;;;;;;;;6.18;100.00;98596.50;4960319;28;19922;-84
2022/11/03 14:58:34;;;;;;;;;;;;;;;6.20;100.00;98589.38;4976754;28;19918;-89
2022/11/03 15:01:01;;;;;;;;;;;;;;;6.27;100.00;98589.97;4976497;28;19987;-92
2022/11/03 15:03:26;;;;;;;;;;;;;;;6.23;100.00;98576.09;4976526;28;20383;-88
2022/11/03 15:05:54;;;;;;;;;;;;;;;6.24;100.00;98575.19;4976337;28;20009;-86
2022/11/03 15:08:20;;;;;;;;;;;;;;;6.22;100.00;98577.00;4974912;28;19957;-86
2022/11/03 15:10:45;;;;;;;;;;;;;;;6.24;100.00;98569.06;4958998;28;19925;-86
2022/11/03 15:13:11;;;;;;;;;;;;;;;6.23;100.00;98573.47;4976168;28;20285;-90
2022/11/03 15:15:36;;;;;;;;;;;;;;;6.28;100.00;98579.38;4976198;28;20385;-85
2022/11/03 15:18:04;;;;;;;;;;;;;;;6.27;100.00;98579.44;4976074;28;19957;-87
2022/11/03 15:20:30;;;;;;;;;;;;;;;6.28;100.00;98570.63;4958877;28;19922;-88
2022/11/03 15:22:55;;;;;;;;;;;;;;;6.27;100.00;98545.25;4976199;28;20006;-90
2022/11/03 15:25:20;;;;;;;;;;;;;;;6.30;100.00;98555.63;4957798;28;19914;-90
2022/11/03 15:27:56;;;;;;;;;;;;;;;6.31;100.00;98559.97;4976166;28;19940;-88
2022/11/03 15:30:21;;;;;;;;;;;;;;;6.30;100.00;98551.25;4976370;28;19918;-85
2022/11/03 15:32:47;;;;;;;;;;;;;;;6.31;100.00;98545.03;4976014;28;19988;-86
2022/11/03 15:35:12;;;;;;;;;;;;;;;6.35;100.00;98537.84;4974881;28;20428;-85
2022/11/03 15:37:38;;;;;;;;;;;;;;;6.35;100.00;98520.31;4958496;28;19934;-87
2022/11/03 15:40:03;;;;;;;;;;;;;;;6.45;100.00;98517.25;4974393;28;20032;-88
2022/11/03 15:42:29;;;;;;;;;;;;;;;9.05;100.00;98509.22;4975802;28;19914;-83
2022/11/03 15:44:54;;;;;;;;;;;;;;;7.79;100.00;98506.31;4975547;28;19969;-85
2022/11/03 15:47:19;;;;;;;;;;;;;;;6.87;100.00;98513.53;4975636;28;19925;-85
2022/11/03 15:49:44;;;;;;;;;;;;;;;6.67;100.00;98502.16;4975485;28;20017;-84
2022/11/03 15:52:10;;;;;;;;;;;;;;;6.68;100.00;98503.00;4975518;28;19999;-86
2022/11/03 15:54:35;;;;;;;;;;;;;;;6.88;100.00;98491.53;4979400;28;19922;-89
2022/11/03 15:57:00;;;;;;;;;;;;;;;7.12;100.00;98493.91;4994612;28;20416;-84
2022/11/03 15:59:26;;;;;;;;;;;;;;;7.38;100.00;98482.91;4994742;28;19925;-86
2022/11/03 16:01:51;;;;;;;;;;;;;;;7.59;100.00;98478.31;4994612;28;19918;-88
2022/11/03 16:04:16;;;;;;;;;;;;;;;7.75;100.00;98480.16;4994573;28;19917;-88
2022/11/03 16:06:41;;;;;;;;;;;;;;;7.84;100.00;98479.69;4994622;28;19968;-86
2022/11/03 16:09:07;;;;;;;;;;;;;;;7.92;100.00;98469.59;4993368;28;19977;-88
2022/11/03 16:11:32;;;;;;;;;;;;;;;7.98;100.00;98452.59;4994493;28;20365;-88
2022/11/03 16:13:58;;;;;;;;;;;;;;;8.05;100.00;98459.22;4994428;28;20316;-85
2022/11/03 16:16:23;;;;;;;;;;;;;;;8.12;100.00;98460.63;4994536;28;19922;-85
2022/11/03 16:18:49;;;;;;;;;;;;;;;8.17;100.00;98439.28;4994390;28;19950;-84
2022/11/03 16:21:14;;;;;;;;;;;;;;;8.25;100.00;98438.81;4994271;28;19918;-85
2022/11/03 16:23:39;;;;;;;;;;;;;;;8.29;100.00;98430.66;4993141;28;19918;-87
2022/11/03 16:26:20;;;;;;;;;;;;;;;8.32;100.00;98413.81;4994338;28;19918;-94
2022/11/03 16:28:45;;;;;;;;;;;;;;;8.37;100.00;98412.59;4973301;28;19952;-87
2022/11/03 16:31:11;;;;;;;;;;;;;;;8.40;100.00;98406.31;4987886;28;19921;-86
2022/11/03 16:33:36;;;;;;;;;;;;;;;8.43;100.00;98398.25;4992983;28;19952;-84
2022/11/03 16:36:01;;;;;;;;;;;;;;;8.46;100.00;98390.16;4976510;28;19918;-88
2022/11/03 16:38:29;;;;;;;;;;;;;;;8.50;100.00;98389.06;4974692;28;19922;-91
2022/11/03 16:40:55;;;;;;;;;;;;;;;8.57;100.00;98393.97;4969471;28;19922;-84
2022/11/03 16:43:38;;;;;;;;;;;;;;;8.58;100.00;98390.41;4982941;28;20020;-93
2022/11/03 16:46:09;;;;;;;;;;;;;;;8.61;100.00;98382.31;4990516;28;19965;-96
2022/11/03 16:48:35;;;;;;;;;;;;;;;8.77;100.00;98383.13;4975675;28;19922;-87
2022/11/03 16:51:00;;;;;;;;;;;;;;;8.72;100.00;98382.56;4976202;28;19924;-83
2022/11/03 16:53:26;;;;;;;;;;;;;;;8.74;100.00;98385.94;4990747;28;19921;-83
2022/11/03 16:55:51;;;;;;;;;;;;;;;8.72;100.00;98369.34;4993731;28;20400;-81
2022/11/03 16:58:16;;;;;;;;;;;;;;;8.75;100.00;98358.59;4988694;28;19950;-84
2022/11/03 17:00:42;;;;;;;;;;;;;;;8.78;100.00;98362.88;4986160;28;19976;-82
2022/11/03 17:03:07;;;;;;;;;;;;;;;8.80;100.00;98351.25;4993789;28;20356;-83
2022/11/03 17:05:33;;;;;;;;;;;;;;;8.82;100.00;98338.84;4974722;28;19932;-85
2022/11/03 17:07:58;;;;;;;;;;;;;;;8.89;100.00;98344.59;4990137;28;20020;-83
2022/11/03 17:10:26;;;;;;;;;;;;;;;8.87;100.00;98339.41;4988547;28;20393;-83
2022/11/03 17:12:51;;;;;;;;;;;;;;;8.89;100.00;98334.88;4991379;28;19929;-83
2022/11/03 17:15:16;;;;;;;;;;;;;;;8.90;100.00;98331.31;4990703;28;19922;-82
2022/11/03 17:17:42;;;;;;;;;;;;;;;8.94;100.00;98324.03;4991937;28;19953;-85
2022/11/03 17:20:08;;;;;;;;;;;;;;;8.93;100.00;98306.47;4991578;28;19921;-86
2022/11/03 17:22:33;;;;;;;;;;;;;;;8.98;100.00;98300.94;4991040;28;20393;-84
2022/11/03 17:25:05;;;;;;;;;;;;;;;9.01;100.00;98290.19;4973004;28;19929;-89
2022/11/03 17:27:44;;;;;;;;;;;;;;;9.03;100.00;98293.56;4978669;28;19925;-84
2022/11/03 17:30:20;;;;;;;;;;;;;;;9.02;100.00;98291.88;4993563;28;19917;-89
2022/11/03 17:32:46;;;;;;;;;;;;;;;9.04;100.00;98290.84;4993568;28;19925;-84
2022/11/03 17:35:21;;;;;;;;;;;;;;;9.07;100.00;98279.25;4992306;28;20289;-84
2022/11/03 17:37:46;;;;;;;;;;;;;;;9.07;100.00;98292.44;4992728;28;20407;-84
2022/11/03 17:40:16;;;;;;;;;;;;;;;9.08;100.00;98296.81;4991236;28;19922;-88
2022/11/03 17:42:41;;;;;;;;;;;;;;;9.11;100.00;98296.63;4992603;28;19929;-87
2022/11/03 17:45:10;;;;;;;;;;;;;;;9.09;100.00;98304.66;4992591;28;19923;-87
2022/11/03 17:47:35;;;;;;;;;;;;;;;9.12;100.00;98302.75;4992198;28;20614;-82
2022/11/03 17:50:00;;;;;;;;;;;;;;;9.12;100.00;98300.09;4974068;28;19922;-83
2022/11/03 17:52:27;;;;;;;;;;;;;;;9.13;100.00;98305.31;4992262;28;19956;-86
2022/11/03 17:54:54;;;;;;;;;;;;;;;9.13;100.00;98305.31;4991031;28;20361;-86
2022/11/03 17:57:20;;;;;;;;;;;;;;;9.18;100.00;98302.38;4992306;28;19986;-86
2022/11/03 17:59:47;;;;;;;;;;;;;;;9.22;100.00;98295.94;4996283;28;19922;-83
2022/11/03 18:02:18;;;;;;;;;;;;;;;9.22;100.00;98295.94;4967622;28;19922;-87
2022/11/03 18:04:43;;;;;;;;;;;;;;;9.25;100.00;98307.22;4991511;28;19925;-87
2022/11/03 18:07:25;;;;;;;;;;;;;;;9.24;100.00;98302.84;4995648;28;20332;-88
2022/11/03 18:09:50;;;;;;;;;;;;;;;9.26;100.00;98295.66;4994768;28;19921;-84
2022/11/03 18:15:01;;;;;;;;;;;;;;;9.26;100.00;98289.53;4996193;28;20283;-84
2022/11/03 18:17:27;;;;;;;;;;;;;;;9.27;100.00;98284.16;4996709;28;19918;-85
2022/11/03 18:19:53;;;;;;;;;;;;;;;9.29;100.00;98280.59;4993278;28;19925;-83
2022/11/03 18:22:18;;;;;;;;;;;;;;;9.31;100.00;98278.69;4995648;28;19921;-86
2022/11/03 18:24:43;;;;;;;;;;;;;;;9.33;100.00;98271.50;4975164;28;19930;-82
2022/11/03 18:27:12;;;;;;;;;;;;;;;9.36;100.00;98264.22;4976563;28;19936;-86
2022/11/03 18:29:38;;;;;;;;;;;;;;;9.38;100.00;98262.38;4995157;28;20388;-83
2022/11/03 18:32:03;;;;;;;;;;;;;;;9.40;100.00;98264.91;4996362;28;19922;-82
2022/11/03 18:34:30;;;;;;;;;;;;;;;9.44;100.00;98276.97;4994816;28;19929;-82
2022/11/03 18:36:55;;;;;;;;;;;;;;;9.46;100.00;98264.50;4992692;28;20277;-85
2022/11/03 18:39:23;;;;;;;;;;;;;;;9.62;100.00;98249.41;4993965;28;19945;-86
2022/11/03 18:41:48;;;;;;;;;;;;;;;9.94;100.00;98257.06;4993749;28;19922;-82
2022/11/03 18:44:18;;;;;;;;;;;;;;;9.77;100.00;98259.94;4995308;28;19967;-91
2022/11/03 18:46:44;;;;;;;;;;;;;;;9.67;100.00;98249.09;4996102;28;20304;-84
2022/11/03 18:49:10;;;;;;;;;;;;;;;9.64;100.00;98268.66;4994239;28;19921;-88
2022/11/03 18:51:39;;;;;;;;;;;;;;;9.66;100.00;98286.22;4994014;28;19921;-90
2022/11/03 18:54:05;;;;;;;;;;;;;;;9.65;100.00;98298.56;4975965;28;20020;-87
2022/11/03 18:56:31;;;;;;;;;;;;;;;9.64;100.00;98303.03;4995693;28;20024;-90
2022/11/03 18:58:56;;;;;;;;;;;;;;;9.66;100.00;98288.88;4977839;28;19929;-83
2022/11/03 19:01:26;;;;;;;;;;;;;;;9.69;100.00;98280.75;4975932;28;19939;-84
2022/11/03 19:03:57;;;;;;;;;;;;;;;9.68;100.00;98281.69;4995127;28;20040;-83
2022/11/03 19:06:23;;;;;;;;;;;;;;;9.73;100.00;98269.00;4995708;28;20321;-85
2022/11/03 19:08:51;;;;;;;;;;;;;;;9.73;100.00;98263.72;4993865;28;19921;-82
2022/11/03 19:11:16;;;;;;;;;;;;;;;9.74;100.00;98289.22;4993515;28;20070;-84
2022/11/03 19:13:43;;;;;;;;;;;;;;;9.74;100.00;98302.47;4992374;28;20008;-82
2022/11/03 19:16:17;;;;;;;;;;;;;;;9.77;100.00;98308.41;4992386;28;20310;-84
2022/11/03 19:18:43;;;;;;;;;;;;;;;9.77;100.00;98320.78;4984919;28;20001;-84
2022/11/03 19:21:19;;;;;;;;;;;;;;;9.78;100.00;98325.09;4995431;28;19989;-84
2022/11/03 19:23:45;;;;;;;;;;;;;;;9.78;100.00;98322.47;4994060;28;19945;-83
2022/11/03 19:26:14;;;;;;;;;;;;;;;9.79;100.00;98305.66;4995487;28;19922;-83
2022/11/03 19:28:40;;;;;;;;;;;;;;;9.80;100.00;98310.00;4995043;28;20284;-83
2022/11/03 19:31:05;;;;;;;;;;;;;;;9.82;100.00;98303.66;4994189;28;20017;-83
2022/11/03 19:33:30;;;;;;;;;;;;;;;9.85;100.00;98293.84;4991884;28;20004;-83
2022/11/03 19:35:57;;;;;;;;;;;;;;;9.85;100.00;98297.34;4993387;28;19929;-85
2022/11/03 19:38:22;;;;;;;;;;;;;;;9.88;100.00;98288.38;4974499;28;19925;-88
2022/11/03 19:43:31;;;;;;;;;;;;;;;9.89;100.00;98229.19;4991998;28;20036;-83
2022/11/03 19:45:57;;;;;;;;;;;;;;;9.92;100.00;98240.41;4993722;28;19923;-83
2022/11/03 19:48:23;;;;;;;;;;;;;;;9.91;100.00;98236.09;4993659;28;20012;-87
2022/11/03 19:50:48;;;;;;;;;;;;;;;9.93;100.00;98252.72;4991902;28;20013;-84
2022/11/03 19:53:25;;;;;;;;;;;;;;;9.93;100.00;98255.34;4991850;28;19996;-85
2022/11/03 19:55:51;;;;;;;;;;;;;;;9.95;100.00;98269.31;4991241;28;19921;-85
2022/11/03 19:58:18;;;;;;;;;;;;;;;9.96;100.00;98255.16;4990533;28;19921;-83
2022/11/03 20:00:44;;;;;;;;;;;;;;;9.97;100.00;98262.16;4958986;28;20342;-83
2022/11/03 20:03:09;;;;;;;;;;;;;;;9.98;100.00;98258.53;4987760;28;19961;-84
2022/11/03 20:05:38;;;;;;;;;;;;;;;10.00;100.00;98269.03;4993710;28;19921;-91
2022/11/03 20:08:06;;;;;;;;;;;;;;;10.00;100.00;98277.84;4991263;28;19925;-86
2022/11/03 20:10:32;;;;;;;;;;;;;;;10.03;100.00;98290.00;4977318;28;20009;-87
2022/11/03 20:12:57;;;;;;;;;;;;;;;10.03;100.00;98287.34;4990789;28;19918;-82
2022/11/03 20:15:22;;;;;;;;;;;;;;;10.04;100.00;98301.47;4993323;28;19922;-83
2022/11/03 20:17:48;;;;;;;;;;;;;;;10.05;100.00;98316.38;4993177;28;20325;-87
2022/11/03 20:20:15;;;;;;;;;;;;;;;10.04;100.00;98326.13;4989382;28;19925;-83
2022/11/03 20:22:42;;;;;;;;;;;;;;;10.05;100.00;98335.75;4991930;28;19937;-83
2022/11/03 20:25:11;;;;;;;;;;;;;;;10.08;100.00;98340.84;4991431;28;19925;-83
2022/11/03 20:27:36;;;;;;;;;;;;;;;10.07;100.00;98340.94;4994192;28;19960;-85
2022/11/03 20:30:01;;;;;;;;;;;;;;;10.08;100.00;98363.81;4992413;28;20508;-83
2022/11/03 20:32:27;;;;;;;;;;;;;;;10.10;100.00;98368.06;4992783;28;19929;-85
2022/11/03 20:34:52;;;;;;;;;;;;;;;10.11;100.00;98366.25;4992385;28;19924;-85
2022/11/03 20:37:18;;;;;;;;;;;;;;;10.11;100.00;98366.25;4992335;28;19926;-83
2022/11/03 20:39:44;;;;;;;;;;;;;;;10.11;100.00;98339.81;4963469;28;20028;-83
2022/11/03 20:42:21;;;;;;;;;;;;;;;10.13;100.00;98327.31;4989367;28;19929;-84
2022/11/03 20:44:46;;;;;;;;;;;;;;;10.14;100.00;98324.56;4972623;28;20004;-87
2022/11/03 20:47:12;;;;;;;;;;;;;;;10.13;100.00;98338.78;4992392;28;20069;-87
2022/11/03 20:49:38;;;;;;;;;;;;;;;10.13;100.00;98333.47;4992320;28;20969;-89
2022/11/03 20:52:05;;;;;;;;;;;;;;;10.15;100.00;98333.38;4991943;28;19925;-83
2022/11/03 20:54:30;;;;;;;;;;;;;;;10.19;100.00;98350.75;4990641;28;19937;-86
2022/11/03 20:56:55;;;;;;;;;;;;;;;10.18;100.00;98357.84;4992861;28;19922;-86